createdAt,value
2018-11-07T00:02:27.246Z,3.27
2018-11-07T00:04:54.336Z,3.47
2018-11-07T00:07:21.426Z,3.27
2018-11-07T00:09:48.530Z,3.50
2018-11-07T00:12:15.612Z,3.40
2018-11-07T00:14:42.708Z,3.33
2018-11-07T00:17:09.804Z,3.43
2018-11-07T00:19:36.880Z,3.03
2018-11-07T00:22:04.741Z,3.50
2018-11-07T00:24:31.836Z,3.40
2018-11-07T00:26:58.933Z,3.30
2018-11-07T00:29:26.012Z,3.50
2018-11-07T00:31:53.084Z,3.50
2018-11-07T00:34:20.188Z,3.80
2018-11-07T00:36:47.276Z,3.43
2018-11-07T00:39:14.364Z,3.77
2018-11-07T00:41:41.452Z,3.60
2018-11-07T00:44:08.532Z,3.60
2018-11-07T00:46:35.620Z,3.50
2018-11-07T00:49:02.728Z,3.30
2018-11-07T00:51:30.039Z,2.73
2018-11-07T00:53:57.288Z,3.20
2018-11-07T00:56:24.365Z,3.03
2018-11-07T00:58:51.472Z,3.13
2018-11-07T01:01:18.609Z,2.90
2018-11-07T01:03:45.692Z,2.97
2018-11-07T01:06:12.793Z,2.90
2018-11-07T01:08:39.881Z,3.00
2018-11-07T01:11:07.044Z,3.07
2018-11-07T01:13:34.148Z,3.03
2018-11-07T01:16:01.228Z,2.80
2018-11-07T01:18:28.340Z,2.90
2018-11-07T01:20:55.417Z,2.60
2018-11-07T01:23:22.496Z,2.20
2018-11-07T01:25:49.584Z,2.40
2018-11-07T01:28:16.752Z,1.70
2018-11-07T01:30:43.752Z,2.20
2018-11-07T01:33:10.852Z,2.00
2018-11-07T01:35:37.953Z,2.10
2018-11-07T01:38:05.295Z,1.80
2018-11-07T01:40:32.393Z,1.90
2018-11-07T01:42:59.460Z,2.00
2018-11-07T01:45:26.568Z,2.17
2018-11-07T01:47:53.661Z,2.10
2018-11-07T01:50:20.770Z,1.93
2018-11-07T01:52:47.848Z,2.10
2018-11-07T01:55:14.944Z,2.13
2018-11-07T01:57:42.104Z,2.03
2018-11-07T02:00:10.872Z,2.20
2018-11-07T02:02:38.086Z,2.30
2018-11-07T02:05:05.488Z,2.20
2018-11-07T02:07:32.568Z,2.13
2018-11-07T02:09:59.664Z,2.50
2018-11-07T02:12:26.748Z,2.20
2018-11-07T02:14:53.816Z,2.13
2018-11-07T02:17:20.885Z,2.13
2018-11-07T02:19:47.982Z,2.07
2018-11-07T02:22:15.077Z,1.80
2018-11-07T02:24:42.158Z,1.83
2018-11-07T02:27:09.252Z,1.80
2018-11-07T02:29:36.340Z,1.83
2018-11-07T02:32:03.765Z,1.73
2018-11-07T02:34:30.837Z,1.80
2018-11-07T02:36:58.021Z,2.00
2018-11-07T02:39:25.103Z,1.73
2018-11-07T02:41:52.229Z,1.93
2018-11-07T02:44:19.277Z,1.90
2018-11-07T02:46:46.357Z,2.50
2018-11-07T02:49:13.553Z,2.00
2018-11-07T02:51:40.649Z,2.10
2018-11-07T02:54:07.720Z,2.10
2018-11-07T02:56:34.798Z,2.13
2018-11-07T02:59:01.893Z,2.40
2018-11-07T03:01:29.309Z,2.60
2018-11-07T03:03:56.512Z,2.17
2018-11-07T03:06:23.671Z,2.27
2018-11-07T03:08:50.760Z,2.40
2018-11-07T03:11:17.842Z,2.40
2018-11-07T03:13:44.960Z,2.07
2018-11-07T03:16:12.041Z,2.40
2018-11-07T03:18:39.195Z,2.50
2018-11-07T03:21:06.295Z,2.60
2018-11-07T03:23:33.360Z,2.20
2018-11-07T03:26:00.476Z,2.53
2018-11-07T03:28:27.548Z,2.23
2018-11-07T03:30:54.640Z,2.60
2018-11-07T03:33:21.724Z,2.53
2018-11-07T03:35:48.804Z,2.50
2018-11-07T03:38:15.884Z,2.60
2018-11-07T03:40:42.988Z,2.90
2018-11-07T03:43:10.076Z,2.57
2018-11-07T03:45:42.879Z,2.63
2018-11-07T03:48:09.985Z,2.93
2018-11-07T03:50:37.062Z,3.10
2018-11-07T03:53:04.208Z,3.07
2018-11-07T03:55:31.235Z,3.27
2018-11-07T03:57:58.309Z,3.17
2018-11-07T04:00:25.397Z,3.40
2018-11-07T04:02:52.479Z,3.53
2018-11-07T04:05:19.571Z,3.23
2018-11-07T04:07:46.684Z,3.47
2018-11-07T04:10:13.757Z,3.60
2018-11-07T04:12:40.840Z,3.60
2018-11-07T04:15:08.544Z,3.57
2018-11-07T04:17:35.639Z,3.60
2018-11-07T04:20:03.277Z,3.93
2018-11-07T04:22:30.352Z,3.80
2018-11-07T04:24:57.468Z,3.37
2018-11-07T04:27:24.548Z,3.67
2018-11-07T04:29:51.621Z,4.10
2018-11-07T04:32:18.717Z,4.00
2018-11-07T04:34:45.811Z,3.90
2018-11-07T04:37:12.956Z,3.97
2018-11-07T04:39:40.039Z,3.83
2018-11-07T04:42:07.128Z,4.17
2018-11-07T04:44:34.200Z,4.20
2018-11-07T04:47:01.577Z,4.00
2018-11-07T04:49:28.696Z,4.43
2018-11-07T04:51:55.811Z,3.67
2018-11-07T04:54:22.904Z,4.00
2018-11-07T04:56:49.983Z,4.23
2018-11-07T04:59:17.069Z,4.40
2018-11-07T05:01:44.172Z,4.47
2018-11-07T05:04:11.257Z,4.27
2018-11-07T05:06:38.365Z,4.20
2018-11-07T05:09:06.281Z,4.30
2018-11-07T05:11:33.372Z,4.13
2018-11-07T05:14:00.455Z,3.90
2018-11-07T05:16:27.537Z,4.43
2018-11-07T05:18:54.612Z,4.20
2018-11-07T05:21:21.711Z,4.43
2018-11-07T05:23:48.812Z,4.80
2018-11-07T05:26:15.979Z,4.87
2018-11-07T05:28:42.988Z,5.33
2018-11-07T05:31:10.124Z,4.47
2018-11-07T05:33:37.198Z,5.23
2018-11-07T05:36:04.620Z,4.50
2018-11-07T05:38:31.703Z,4.83
2018-11-07T05:40:58.821Z,5.00
2018-11-07T05:43:25.887Z,4.73
2018-11-07T05:45:52.964Z,5.40
2018-11-07T05:48:20.053Z,4.77
2018-11-07T05:50:47.145Z,5.00
2018-11-07T05:53:14.236Z,4.70
2018-11-07T05:55:41.324Z,4.80
2018-11-07T05:58:08.436Z,4.80
2018-11-07T06:00:35.572Z,4.57
2018-11-07T06:03:02.666Z,4.77
2018-11-07T06:05:29.760Z,4.30
2018-11-07T06:07:56.868Z,4.37
2018-11-07T06:10:23.956Z,4.90
2018-11-07T06:12:51.044Z,4.27
2018-11-07T06:15:18.153Z,4.60
2018-11-07T06:17:45.256Z,4.67
2018-11-07T06:20:12.377Z,4.70
2018-11-07T06:22:39.476Z,5.00
2018-11-07T06:25:06.608Z,4.60
2018-11-07T06:27:34.012Z,4.50
2018-11-07T06:30:01.229Z,4.70
2018-11-07T06:32:28.368Z,5.10
2018-11-07T06:34:55.532Z,4.87
2018-11-07T06:37:22.609Z,5.13
2018-11-07T06:39:49.730Z,4.73
2018-11-07T06:42:16.848Z,4.77
2018-11-07T06:44:43.928Z,4.93
2018-11-07T06:47:11.022Z,4.73
2018-11-07T06:49:38.112Z,4.73
2018-11-07T06:52:05.288Z,4.60
2018-11-07T06:54:32.373Z,4.70
2018-11-07T06:56:59.474Z,5.13
2018-11-07T06:59:26.553Z,5.30
2018-11-07T07:01:53.652Z,4.70
2018-11-07T07:04:20.729Z,5.00
2018-11-07T07:06:47.816Z,4.90
2018-11-07T07:09:14.961Z,4.77
2018-11-07T07:11:42.060Z,4.67
2018-11-07T07:14:09.168Z,4.90
2018-11-07T07:16:36.249Z,4.70
2018-11-07T07:19:03.437Z,4.53
2018-11-07T07:21:30.570Z,4.80
2018-11-07T07:23:57.683Z,4.33
2018-11-07T07:26:24.819Z,4.53
2018-11-07T07:28:51.936Z,5.43
2018-11-07T07:31:19.048Z,4.63
2018-11-07T07:33:46.242Z,4.40
2018-11-07T07:36:13.360Z,4.03
2018-11-07T07:38:40.480Z,4.70
2018-11-07T07:41:07.566Z,4.20
2018-11-07T07:43:34.643Z,3.53
2018-11-07T07:46:01.753Z,3.43
2018-11-07T07:48:28.835Z,3.87
2018-11-07T07:50:55.909Z,3.70
2018-11-07T07:53:23.011Z,3.40
2018-11-07T07:55:50.094Z,3.30
2018-11-07T07:58:17.180Z,3.10
2018-11-07T08:00:44.260Z,3.17
2018-11-07T08:03:11.360Z,3.10
2018-11-07T08:05:38.470Z,2.77
2018-11-07T08:08:05.605Z,3.03
2018-11-07T08:10:32.700Z,2.50
2018-11-07T08:12:59.791Z,2.40
2018-11-07T08:15:26.883Z,2.47
2018-11-07T08:17:53.988Z,2.50
2018-11-07T08:20:21.083Z,2.23
2018-11-07T08:22:48.751Z,1.73
2018-11-07T08:25:15.856Z,2.20
2018-11-07T08:27:43.038Z,2.00
2018-11-07T08:30:15.312Z,2.00
2018-11-07T08:32:42.457Z,2.20
2018-11-07T08:35:10.940Z,1.90
2018-11-07T08:37:38.617Z,1.90
2018-11-07T08:40:09.523Z,1.80
2018-11-07T08:42:37.212Z,1.70
2018-11-07T08:45:05.345Z,1.70
2018-11-07T08:47:32.429Z,1.77
2018-11-07T08:49:59.524Z,1.70
2018-11-07T08:52:26.600Z,1.80
2018-11-07T08:54:53.692Z,1.60
2018-11-07T08:57:20.772Z,1.67
2018-11-07T08:59:47.868Z,1.70
2018-11-07T09:02:15.095Z,1.80
2018-11-07T09:04:42.153Z,1.50
2018-11-07T09:07:09.244Z,1.70
2018-11-07T09:09:36.509Z,1.63
2018-11-07T09:12:04.483Z,1.70
2018-11-07T09:14:31.596Z,1.60
2018-11-07T09:16:58.732Z,1.60
2018-11-07T09:19:25.832Z,1.53
2018-11-07T09:21:52.924Z,1.70
2018-11-07T09:24:20.129Z,1.53
2018-11-07T09:26:47.226Z,1.60
2018-11-07T09:29:14.391Z,1.53
2018-11-07T09:31:41.432Z,1.87
2018-11-07T09:34:08.533Z,1.70
2018-11-07T09:36:35.656Z,2.00
2018-11-07T09:39:02.925Z,1.93
2018-11-07T09:41:30.008Z,1.70
2018-11-07T09:43:57.080Z,1.57
2018-11-07T09:46:24.208Z,1.70
2018-11-07T09:48:51.308Z,1.60
2018-11-07T09:51:18.400Z,1.83
2018-11-07T09:53:45.603Z,1.80
2018-11-07T09:56:12.591Z,1.73
2018-11-07T09:58:39.672Z,1.57
2018-11-07T10:01:06.776Z,2.53
2018-11-07T10:03:33.856Z,1.40
2018-11-07T10:06:00.968Z,1.77
2018-11-07T10:08:28.057Z,1.70
2018-11-07T10:10:55.150Z,1.90
2018-11-07T10:13:22.229Z,1.57
2018-11-07T10:15:49.320Z,2.30
2018-11-07T10:18:16.438Z,1.90
2018-11-07T10:20:43.609Z,1.87
2018-11-07T10:23:10.641Z,1.90
2018-11-07T10:25:37.775Z,2.07
2018-11-07T10:28:05.440Z,1.70
2018-11-07T10:30:32.036Z,2.00
2018-11-07T10:32:59.109Z,1.93
2018-11-07T10:35:26.238Z,2.00
2018-11-07T10:37:53.406Z,2.00
2018-11-07T10:40:21.859Z,1.90
2018-11-07T10:42:48.974Z,1.97
2018-11-07T10:45:16.097Z,1.93
2018-11-07T10:47:44.334Z,1.80
2018-11-07T10:50:12.501Z,1.60
2018-11-07T10:52:40.584Z,1.70
2018-11-07T10:55:08.041Z,1.73
2018-11-07T10:57:35.496Z,1.83
2018-11-07T11:00:03.041Z,1.80
2018-11-07T11:02:35.873Z,1.60
2018-11-07T11:05:03.288Z,1.70
2018-11-07T11:07:30.353Z,2.00
2018-11-07T11:09:57.457Z,2.83
2018-11-07T11:12:24.556Z,2.00
2018-11-07T11:14:51.804Z,1.93
2018-11-07T11:17:18.886Z,1.70
2018-11-07T11:19:45.960Z,1.80
2018-11-07T11:22:13.053Z,2.07
2018-11-07T11:24:40.140Z,2.00
2018-11-07T11:27:07.270Z,1.87
2018-11-07T11:29:34.303Z,1.70
2018-11-07T11:32:01.392Z,2.00
2018-11-07T11:34:28.573Z,1.90
2018-11-07T11:36:55.633Z,1.67
2018-11-07T11:39:22.717Z,2.00
2018-11-07T11:41:49.792Z,2.03
2018-11-07T11:44:16.885Z,2.47
2018-11-07T11:46:44.436Z,2.20
2018-11-07T11:49:11.582Z,2.00
2018-11-07T11:51:38.629Z,2.20
2018-11-07T11:54:05.728Z,2.30
2018-11-07T11:56:32.824Z,1.83
2018-11-07T11:59:00.025Z,2.27
2018-11-07T12:01:27.009Z,2.07
2018-11-07T12:03:54.128Z,1.77
2018-11-07T12:06:21.375Z,1.90
2018-11-07T12:08:48.415Z,2.10
2018-11-07T12:11:15.484Z,1.87
2018-11-07T12:13:42.582Z,1.73
2018-11-07T12:16:09.661Z,2.10
2018-11-07T12:18:36.741Z,2.40
2018-11-07T12:21:03.865Z,2.13
2018-11-07T12:23:30.929Z,1.97
2018-11-07T12:25:58.004Z,2.00
2018-11-07T12:28:25.089Z,2.27
2018-11-07T12:30:52.208Z,2.07
2018-11-07T12:33:19.300Z,2.60
2018-11-07T12:35:46.405Z,2.33
2018-11-07T12:38:13.529Z,2.17
2018-11-07T12:40:40.629Z,2.00
2018-11-07T12:43:07.733Z,2.37
2018-11-07T12:45:34.832Z,2.40
2018-11-07T12:48:01.932Z,2.40
2018-11-07T12:50:29.096Z,2.40
2018-11-07T12:52:56.133Z,2.37
2018-11-07T12:55:23.236Z,2.30
2018-11-07T12:57:50.549Z,2.20
2018-11-07T13:00:19.830Z,2.40
2018-11-07T13:02:46.980Z,2.50
2018-11-07T13:05:15.489Z,2.40
2018-11-07T13:07:43.573Z,2.30
2018-11-07T13:10:13.493Z,2.40
2018-11-07T13:12:41.548Z,2.43
2018-11-07T13:15:09.632Z,2.57
2018-11-07T13:17:36.777Z,2.70
2018-11-07T13:20:05.685Z,3.50
2018-11-07T13:22:32.922Z,3.70
2018-11-07T13:24:59.936Z,4.20
2018-11-07T13:27:27.040Z,4.70
2018-11-07T13:29:54.149Z,5.30
2018-11-07T13:32:21.233Z,4.13
2018-11-07T13:34:48.348Z,2.93
2018-11-07T13:37:15.686Z,3.10
2018-11-07T13:39:42.529Z,3.40
2018-11-07T13:42:09.671Z,2.90
2018-11-07T13:44:36.753Z,2.90
2018-11-07T13:47:03.857Z,2.70
2018-11-07T13:49:30.971Z,2.73
2018-11-07T13:51:58.068Z,3.27
2018-11-07T13:54:25.173Z,2.93
2018-11-07T13:56:52.265Z,2.97
2018-11-07T13:59:19.428Z,3.37
2018-11-07T14:01:46.545Z,3.00
2018-11-07T14:04:13.628Z,2.77
2018-11-07T14:06:40.734Z,2.90
2018-11-07T14:09:08.976Z,3.30
2018-11-07T14:11:36.087Z,3.20
2018-11-07T14:14:03.186Z,3.10
2018-11-07T14:16:30.307Z,3.20
2018-11-07T14:18:57.396Z,3.00
2018-11-07T14:21:24.484Z,3.37
2018-11-07T14:23:51.557Z,3.40
2018-11-07T14:26:19.037Z,3.67
2018-11-07T14:28:46.180Z,3.10
2018-11-07T14:31:13.276Z,3.80
2018-11-07T14:33:40.553Z,3.63
2018-11-07T14:36:07.663Z,4.13
2018-11-07T14:38:34.839Z,6.00
2018-11-07T14:41:01.875Z,4.90
2018-11-07T14:43:28.972Z,4.30
2018-11-07T14:45:56.061Z,5.60
2018-11-07T14:48:23.149Z,5.80
2018-11-07T14:50:50.268Z,4.33
2018-11-07T14:53:17.380Z,4.40
2018-11-07T14:55:44.496Z,5.07
2018-11-07T14:58:11.592Z,4.67
2018-11-07T15:00:38.683Z,4.53
2018-11-07T15:03:05.788Z,4.10
2018-11-07T15:05:32.927Z,4.13
2018-11-07T15:07:59.991Z,3.80
2018-11-07T15:10:27.088Z,3.90
2018-11-07T15:12:54.184Z,4.00
2018-11-07T15:15:21.342Z,4.60
2018-11-07T15:17:48.445Z,5.07
2018-11-07T15:20:16.640Z,5.43
2018-11-07T15:22:43.857Z,6.40
2018-11-07T15:25:12.173Z,6.30
2018-11-07T15:27:40.036Z,5.33
2018-11-07T15:30:08.549Z,7.77
2018-11-07T15:32:35.714Z,5.90
2018-11-07T15:35:02.901Z,3.70
2018-11-07T15:37:30.016Z,3.90
2018-11-07T15:39:57.113Z,3.33
2018-11-07T15:42:24.231Z,3.40
2018-11-07T15:44:51.386Z,3.87
2018-11-07T15:47:18.490Z,4.17
2018-11-07T15:49:51.288Z,4.10
2018-11-07T15:52:18.390Z,3.60
2018-11-07T15:54:45.484Z,3.27
2018-11-07T15:57:12.590Z,3.93
2018-11-07T15:59:39.733Z,3.30
2018-11-07T16:02:06.833Z,3.07
2018-11-07T16:04:33.929Z,3.13
2018-11-07T16:07:01.029Z,3.60
2018-11-07T16:09:28.129Z,3.27
2018-11-07T16:11:55.228Z,3.50
2018-11-07T16:14:22.353Z,3.70
2018-11-07T16:16:49.456Z,3.13
2018-11-07T16:19:16.600Z,3.53
2018-11-07T16:21:43.728Z,3.47
2018-11-07T16:24:10.889Z,3.33
2018-11-07T16:26:37.937Z,3.30
2018-11-07T16:29:05.054Z,3.30
2018-11-07T16:31:32.152Z,3.80
2018-11-07T16:33:59.233Z,3.80
2018-11-07T16:36:26.337Z,4.00
2018-11-07T16:38:53.429Z,4.27
2018-11-07T16:41:20.722Z,3.60
2018-11-07T16:43:47.656Z,4.03
2018-11-07T16:46:14.790Z,4.03
2018-11-07T16:48:41.932Z,3.90
2018-11-07T16:51:08.957Z,4.20
2018-11-07T16:53:36.045Z,3.90
2018-11-07T16:56:03.167Z,4.20
2018-11-07T16:58:30.264Z,3.63
2018-11-07T17:00:57.357Z,4.00
2018-11-07T17:03:24.440Z,3.57
2018-11-07T17:05:51.547Z,3.97
2018-11-07T17:08:18.645Z,3.60
2018-11-07T17:10:45.750Z,3.50
2018-11-07T17:13:12.854Z,3.40
2018-11-07T17:15:39.948Z,3.83
2018-11-07T17:18:07.041Z,3.13
2018-11-07T17:20:34.200Z,3.33
2018-11-07T17:23:01.280Z,3.30
2018-11-07T17:25:28.384Z,3.47
2018-11-07T17:27:55.476Z,3.20
2018-11-07T17:30:23.786Z,2.70
2018-11-07T17:32:50.880Z,3.07
2018-11-07T17:35:18.397Z,2.87
2018-11-07T17:37:45.857Z,2.87
2018-11-07T17:40:16.373Z,3.30
2018-11-07T17:42:43.864Z,2.93
2018-11-07T17:45:12.735Z,3.00
2018-11-07T17:47:40.644Z,3.13
2018-11-07T17:50:08.894Z,3.60
2018-11-07T17:52:36.045Z,3.23
2018-11-07T17:55:03.185Z,3.10
2018-11-07T17:57:31.141Z,3.37
2018-11-07T17:59:58.244Z,2.97
2018-11-07T18:02:25.414Z,2.73
2018-11-07T18:04:52.520Z,2.90
2018-11-07T18:07:19.604Z,2.90
2018-11-07T18:09:46.700Z,2.97
2018-11-07T18:12:13.776Z,3.40
2018-11-07T18:14:40.877Z,3.70
2018-11-07T18:17:08.004Z,4.20
2018-11-07T18:19:35.160Z,3.40
2018-11-07T18:22:02.181Z,3.40
2018-11-07T18:24:29.289Z,3.27
2018-11-07T18:26:56.361Z,3.07
2018-11-07T18:29:23.494Z,3.20
2018-11-07T18:31:50.604Z,2.83
2018-11-07T18:34:17.712Z,3.20
2018-11-07T18:36:44.804Z,2.97
2018-11-07T18:39:16.041Z,2.90
2018-11-07T18:41:44.560Z,3.10
2018-11-07T18:44:11.752Z,3.00
2018-11-07T18:46:38.833Z,2.90
2018-11-07T18:49:05.956Z,2.70
2018-11-07T18:51:33.065Z,2.70
2018-11-07T18:54:00.144Z,3.10
2018-11-07T18:56:27.613Z,3.10
2018-11-07T18:58:54.813Z,3.20
2018-11-07T19:01:21.800Z,2.80
2018-11-07T19:03:48.880Z,2.90
2018-11-07T19:06:15.996Z,3.17
2018-11-07T19:08:43.092Z,3.20
2018-11-07T19:11:10.199Z,2.83
2018-11-07T19:13:37.285Z,2.90
2018-11-07T19:16:04.389Z,3.10
2018-11-07T19:18:31.493Z,2.63
2018-11-07T19:20:58.604Z,2.80
2018-11-07T19:23:25.697Z,2.80
2018-11-07T19:25:52.806Z,2.90
2018-11-07T19:28:19.950Z,2.73
2018-11-07T19:30:47.037Z,3.00
2018-11-07T19:33:14.127Z,2.87
2018-11-07T19:35:41.200Z,2.80
2018-11-07T19:38:08.310Z,3.20
2018-11-07T19:40:35.405Z,3.23
2018-11-07T19:43:02.505Z,2.80
2018-11-07T19:45:29.603Z,3.10
2018-11-07T19:47:56.732Z,2.70
2018-11-07T19:50:23.836Z,2.77
2018-11-07T19:52:51.543Z,2.70
2018-11-07T19:55:20.150Z,2.83
2018-11-07T19:57:50.160Z,2.83
2018-11-07T20:00:17.572Z,2.77
2018-11-07T20:02:45.434Z,3.03
2018-11-07T20:05:12.577Z,3.13
2018-11-07T20:07:39.685Z,2.70
2018-11-07T20:10:09.283Z,2.90
2018-11-07T20:12:36.701Z,2.83
2018-11-07T20:15:04.849Z,3.13
2018-11-07T20:17:31.984Z,2.90
2018-11-07T20:19:59.073Z,3.30
2018-11-07T20:22:26.182Z,3.00
2018-11-07T20:24:53.269Z,2.77
2018-11-07T20:27:20.348Z,2.80
2018-11-07T20:29:47.461Z,2.80
2018-11-07T20:32:14.533Z,2.83
2018-11-07T20:34:41.620Z,2.87
2018-11-07T20:37:08.734Z,3.03
2018-11-07T20:39:35.869Z,3.20
2018-11-07T20:42:02.982Z,2.73
2018-11-07T20:44:30.090Z,3.00
2018-11-07T20:46:57.172Z,2.97
2018-11-07T20:49:24.258Z,2.93
2018-11-07T20:51:51.372Z,3.40
2018-11-07T20:54:18.505Z,3.17
2018-11-07T20:56:45.589Z,2.93
2018-11-07T20:59:12.674Z,3.10
2018-11-07T21:01:39.775Z,3.03
2018-11-07T21:04:06.869Z,3.03
2018-11-07T21:06:33.984Z,3.77
2018-11-07T21:09:01.125Z,3.37
2018-11-07T21:11:28.233Z,3.37
2018-11-07T21:13:55.336Z,3.37
2018-11-07T21:16:22.432Z,3.87
2018-11-07T21:18:49.555Z,3.63
2018-11-07T21:21:16.644Z,3.40
2018-11-07T21:23:43.729Z,3.30
2018-11-07T21:26:10.834Z,3.40
2018-11-07T21:28:37.993Z,3.47
2018-11-07T21:31:05.166Z,3.47
2018-11-07T21:33:32.213Z,3.37
2018-11-07T21:35:59.289Z,3.63
2018-11-07T21:38:26.488Z,3.67
2018-11-07T21:40:53.599Z,3.70
2018-11-07T21:43:20.676Z,3.77
2018-11-07T21:45:47.749Z,3.80
2018-11-07T21:48:14.836Z,3.80
2018-11-07T21:50:41.920Z,4.10
2018-11-07T21:53:09.011Z,3.80
2018-11-07T21:55:36.093Z,3.90
2018-11-07T21:58:03.252Z,4.23
2018-11-07T22:00:30.356Z,3.50
2018-11-07T22:02:57.591Z,3.57
2018-11-07T22:05:24.590Z,3.60
2018-11-07T22:07:51.679Z,3.73
2018-11-07T22:10:18.788Z,4.10
2018-11-07T22:12:45.880Z,3.90
2018-11-07T22:15:12.968Z,3.87
2018-11-07T22:17:40.219Z,3.70
2018-11-07T22:20:13.281Z,3.73
2018-11-07T22:22:40.437Z,3.60
2018-11-07T22:25:07.720Z,3.50
2018-11-07T22:27:34.807Z,3.90
2018-11-07T22:30:01.961Z,3.77
2018-11-07T22:32:29.058Z,3.87
2018-11-07T22:34:56.140Z,4.77
2018-11-07T22:37:23.229Z,3.80
2018-11-07T22:39:50.312Z,3.63
2018-11-07T22:42:17.400Z,3.60
2018-11-07T22:44:44.492Z,4.10
2018-11-07T22:47:11.585Z,3.70
2018-11-07T22:49:38.680Z,3.60
2018-11-07T22:52:06.267Z,3.77
2018-11-07T22:54:33.369Z,3.30
2018-11-07T22:57:00.496Z,3.23
2018-11-07T22:59:27.597Z,3.77
2018-11-07T23:01:54.708Z,3.67
2018-11-07T23:04:21.838Z,3.30
2018-11-07T23:06:48.941Z,3.70
2018-11-07T23:09:16.048Z,3.33
2018-11-07T23:11:44.084Z,3.93
2018-11-07T23:14:14.212Z,3.73
2018-11-07T23:16:41.882Z,3.80
2018-11-07T23:19:09.337Z,3.63
2018-11-07T23:21:36.510Z,3.60
2018-11-07T23:24:04.236Z,3.63
2018-11-07T23:26:31.691Z,4.00
2018-11-07T23:28:58.821Z,4.07
2018-11-07T23:31:26.010Z,3.77
2018-11-07T23:33:53.133Z,3.50
2018-11-07T23:36:20.217Z,3.80
2018-11-07T23:38:47.321Z,3.73
2018-11-07T23:41:14.405Z,4.00
2018-11-07T23:43:41.495Z,3.83
2018-11-07T23:46:08.612Z,3.87
2018-11-07T23:48:35.716Z,3.87
2018-11-07T23:51:02.816Z,3.90
2018-11-07T23:53:29.900Z,3.63
2018-11-07T23:55:56.977Z,3.90
2018-11-07T23:58:24.065Z,3.57
